sensor_id;sensor_type;location;lat;lon;timestamp;pressure;altitude;pressure_sealevel;temperature;humidity
8575;BME280;4325;42.520;27.448;2023-08-31T00:01:30;100187.06;;;24.30;100.00
8575;BME280;4325;42.520;27.448;2023-08-31T00:03:58;100181.78;;;24.25;100.00
8575;BME280;4325;42.520;27.448;2023-08-31T00:06:26;100182.97;;;24.24;100.00
8575;BME280;4325;42.520;27.448;2023-08-31T00:08:53;100183.75;;;24.21;100.00
8575;BME280;4325;42.520;27.448;2023-08-31T00:11:20;100194.97;;;24.24;100.00
8575;BME280;4325;42.520;27.448;2023-08-31T00:13:46;100194.13;;;24.20;100.00
8575;BME280;4325;42.520;27.448;2023-08-31T00:16:15;100189.66;;;24.16;100.00
8575;BME280;4325;42.520;27.448;2023-08-31T00:18:42;100187.28;;;24.18;100.00
8575;BME280;4325;42.520;27.448;2023-08-31T00:21:10;100181.25;;;24.16;100.00
8575;BME280;4325;42.520;27.448;2023-08-31T00:23:37;100188.03;;;24.15;100.00
8575;BME280;4325;42.520;27.448;2023-08-31T00:26:04;100191.56;;;24.12;100.00
8575;BME280;4325;42.520;27.448;2023-08-31T00:28:32;100198.78;;;24.13;100.00
8575;BME280;4325;42.520;27.448;2023-08-31T00:31:00;100194.38;;;24.12;100.00
8575;BME280;4325;42.520;27.448;2023-08-31T00:33:31;100191.25;;;24.17;100.00
8575;BME280;4325;42.520;27.448;2023-08-31T00:35:59;100193.31;;;24.20;100.00
8575;BME280;4325;42.520;27.448;2023-08-31T00:38:28;100200.09;;;24.19;100.00
8575;BME280;4325;42.520;27.448;2023-08-31T00:40:56;100196.41;;;24.15;100.00
8575;BME280;4325;42.520;27.448;2023-08-31T00:43:23;100199.91;;;24.08;100.00
8575;BME280;4325;42.520;27.448;2023-08-31T00:45:51;100201.16;;;24.11;100.00
8575;BME280;4325;42.520;27.448;2023-08-31T00:48:19;100194.72;;;24.07;100.00
8575;BME280;4325;42.520;27.448;2023-08-31T00:50:48;100199.41;;;24.03;100.00
8575;BME280;4325;42.520;27.448;2023-08-31T00:53:16;100197.78;;;24.02;100.00
8575;BME280;4325;42.520;27.448;2023-08-31T00:55:44;100199.78;;;24.01;100.00
8575;BME280;4325;42.520;27.448;2023-08-31T00:58:11;100193.69;;;23.96;100.00
8575;BME280;4325;42.520;27.448;2023-08-31T01:00:44;100208.41;;;23.93;100.00
8575;BME280;4325;42.520;27.448;2023-08-31T01:03:22;100198.72;;;23.87;100.00
8575;BME280;4325;42.520;27.448;2023-08-31T01:05:58;100201.47;;;23.83;100.00
8575;BME280;4325;42.520;27.448;2023-08-31T01:08:35;100208.59;;;23.81;100.00
8575;BME280;4325;42.520;27.448;2023-08-31T01:11:11;100205.25;;;23.72;100.00
8575;BME280;4325;42.520;27.448;2023-08-31T01:13:44;100210.91;;;23.75;100.00
8575;BME280;4325;42.520;27.448;2023-08-31T01:16:14;100224.81;;;23.72;100.00
8575;BME280;4325;42.520;27.448;2023-08-31T01:18:43;100234.84;;;23.73;100.00
8575;BME280;4325;42.520;27.448;2023-08-31T01:21:19;100237.63;;;23.73;100.00
8575;BME280;4325;42.520;27.448;2023-08-31T01:23:52;100226.44;;;23.73;100.00
8575;BME280;4325;42.520;27.448;2023-08-31T01:26:20;100239.22;;;23.74;100.00
8575;BME280;4325;42.520;27.448;2023-08-31T01:28:47;100246.75;;;23.70;100.00
8575;BME280;4325;42.520;27.448;2023-08-31T01:31:15;100249.53;;;23.70;100.00
8575;BME280;4325;42.520;27.448;2023-08-31T01:33:42;100246.75;;;23.70;100.00
8575;BME280;4325;42.520;27.448;2023-08-31T01:36:15;100253.06;;;23.67;100.00
8575;BME280;4325;42.520;27.448;2023-08-31T01:38:48;100255.94;;;23.70;100.00
8575;BME280;4325;42.520;27.448;2023-08-31T01:41:19;100249.97;;;23.72;100.00
8575;BME280;4325;42.520;27.448;2023-08-31T01:43:50;100263.13;;;23.71;100.00
8575;BME280;4325;42.520;27.448;2023-08-31T01:46:18;100251.59;;;23.73;100.00
8575;BME280;4325;42.520;27.448;2023-08-31T01:48:45;100256.91;;;23.78;100.00
8575;BME280;4325;42.520;27.448;2023-08-31T01:51:12;100248.94;;;23.80;100.00
8575;BME280;4325;42.520;27.448;2023-08-31T01:53:39;100248.63;;;23.85;100.00
8575;BME280;4325;42.520;27.448;2023-08-31T01:56:06;100251.78;;;23.83;100.00
8575;BME280;4325;42.520;27.448;2023-08-31T01:58:35;100243.03;;;23.85;100.00
8575;BME280;4325;42.520;27.448;2023-08-31T02:01:01;100243.03;;;23.85;100.00
8575;BME280;4325;42.520;27.448;2023-08-31T02:03:28;100242.66;;;23.86;100.00
8575;BME280;4325;42.520;27.448;2023-08-31T02:05:55;100250.09;;;23.79;100.00
8575;BME280;4325;42.520;27.448;2023-08-31T02:08:23;100249.28;;;23.78;100.00
8575;BME280;4325;42.520;27.448;2023-08-31T02:10:49;100251.72;;;23.80;100.00
8575;BME280;4325;42.520;27.448;2023-08-31T02:13:16;100249.28;;;23.78;100.00
8575;BME280;4325;42.520;27.448;2023-08-31T02:15:45;100259.69;;;23.78;100.00
8575;BME280;4325;42.520;27.448;2023-08-31T02:18:11;100257.63;;;23.75;100.00
8575;BME280;4325;42.520;27.448;2023-08-31T02:20:38;100261.16;;;23.72;100.00
8575;BME280;4325;42.520;27.448;2023-08-31T02:23:05;100267.34;;;23.61;100.00
8575;BME280;4325;42.520;27.448;2023-08-31T02:25:32;100250.53;;;23.58;100.00
8575;BME280;4325;42.520;27.448;2023-08-31T02:27:59;100256.03;;;23.54;100.00
8575;BME280;4325;42.520;27.448;2023-08-31T02:30:26;100249.59;;;23.50;100.00
8575;BME280;4325;42.520;27.448;2023-08-31T02:32:54;100252.59;;;23.42;100.00
8575;BME280;4325;42.520;27.448;2023-08-31T02:35:21;100256.50;;;23.37;100.00
8575;BME280;4325;42.520;27.448;2023-08-31T02:37:48;100260.00;;;23.34;100.00
8575;BME280;4325;42.520;27.448;2023-08-31T02:40:15;100258.69;;;23.28;100.00
8575;BME280;4325;42.520;27.448;2023-08-31T02:42:42;100264.63;;;23.27;100.00
8575;BME280;4325;42.520;27.448;2023-08-31T02:45:09;100268.97;;;23.24;100.00
8575;BME280;4325;42.520;27.448;2023-08-31T02:47:36;100273.75;;;23.24;100.00
8575;BME280;4325;42.520;27.448;2023-08-31T02:50:06;100278.53;;;23.23;100.00
8575;BME280;4325;42.520;27.448;2023-08-31T02:52:34;100272.06;;;23.19;100.00
8575;BME280;4325;42.520;27.448;2023-08-31T02:55:00;100277.19;;;23.17;100.00
8575;BME280;4325;42.520;27.448;2023-08-31T02:57:27;100282.34;;;23.15;100.00
8575;BME280;4325;42.520;27.448;2023-08-31T02:59:54;100280.59;;;23.07;100.00
8575;BME280;4325;42.520;27.448;2023-08-31T03:02:21;100288.50;;;23.05;100.00
8575;BME280;4325;42.520;27.448;2023-08-31T03:04:48;100291.78;;;23.07;100.00
8575;BME280;4325;42.520;27.448;2023-08-31T03:07:17;100287.72;;;23.05;100.00
8575;BME280;4325;42.520;27.448;2023-08-31T03:09:48;100286.91;;;23.04;100.00
8575;BME280;4325;42.520;27.448;2023-08-31T03:12:15;100283.75;;;23.06;100.00
8575;BME280;4325;42.520;27.448;2023-08-31T03:14:42;100293.13;;;22.97;100.00
8575;BME280;4325;42.520;27.448;2023-08-31T03:17:09;100284.41;;;22.99;100.00
8575;BME280;4325;42.520;27.448;2023-08-31T03:19:36;100293.22;;;23.01;100.00
8575;BME280;4325;42.520;27.448;2023-08-31T03:22:03;100288.50;;;23.05;100.00
8575;BME280;4325;42.520;27.448;2023-08-31T03:24:32;100299.34;;;23.07;100.00
8575;BME280;4325;42.520;27.448;2023-08-31T03:26:59;100296.16;;;23.08;100.00
8575;BME280;4325;42.520;27.448;2023-08-31T03:29:26;100291.44;;;23.12;100.00
8575;BME280;4325;42.520;27.448;2023-08-31T03:31:55;100296.59;;;23.10;100.00
8575;BME280;4325;42.520;27.448;2023-08-31T03:34:22;100306.22;;;23.13;100.00
8575;BME280;4325;42.520;27.448;2023-08-31T03:36:48;100313.06;;;23.15;100.00
8575;BME280;4325;42.520;27.448;2023-08-31T03:39:16;100321.97;;;23.21;100.00
8575;BME280;4325;42.520;27.448;2023-08-31T03:41:44;100310.38;;;23.19;100.00
8575;BME280;4325;42.520;27.448;2023-08-31T03:44:11;100320.63;;;23.15;100.00
8575;BME280;4325;42.520;27.448;2023-08-31T03:46:38;100323.13;;;23.20;100.00
8575;BME280;4325;42.520;27.448;2023-08-31T03:49:05;100327.94;;;23.19;100.00
8575;BME280;4325;42.520;27.448;2023-08-31T03:51:32;100335.13;;;23.20;100.00
8575;BME280;4325;42.520;27.448;2023-08-31T03:53:59;100325.50;;;23.18;100.00
8575;BME280;4325;42.520;27.448;2023-08-31T03:56:26;100330.72;;;23.19;100.00
8575;BME280;4325;42.520;27.448;2023-08-31T03:58:54;100338.34;;;23.22;100.00
8575;BME280;4325;42.520;27.448;2023-08-31T04:01:21;100339.13;;;23.19;100.00
8575;BME280;4325;42.520;27.448;2023-08-31T04:03:48;100335.25;;;23.08;100.00
8575;BME280;4325;42.520;27.448;2023-08-31T04:06:15;100339.53;;;23.02;100.00
8575;BME280;4325;42.520;27.448;2023-08-31T04:08:44;100343.47;;;23.01;100.00
8575;BME280;4325;42.520;27.448;2023-08-31T04:11:11;100338.78;;;23.05;100.00
8575;BME280;4325;42.520;27.448;2023-08-31T04:13:38;100344.84;;;23.07;100.00
8575;BME280;4325;42.520;27.448;2023-08-31T04:16:06;100347.63;;;23.07;100.00
8575;BME280;4325;42.520;27.448;2023-08-31T04:18:33;100352.59;;;23.17;100.00
8575;BME280;4325;42.520;27.448;2023-08-31T04:21:00;100351.16;;;23.23;100.00
8575;BME280;4325;42.520;27.448;2023-08-31T04:23:29;100349.25;;;23.27;100.00
8575;BME280;4325;42.520;27.448;2023-08-31T04:25:56;100353.38;;;23.33;100.00
8575;BME280;4325;42.520;27.448;2023-08-31T04:28:23;100355.63;;;23.43;100.00
8575;BME280;4325;42.520;27.448;2023-08-31T04:30:50;100361.66;;;23.45;100.00
8575;BME280;4325;42.520;27.448;2023-08-31T04:33:19;100357.81;;;23.53;100.00
8575;BME280;4325;42.520;27.448;2023-08-31T04:35:46;100359.88;;;23.56;100.00
8575;BME280;4325;42.520;27.448;2023-08-31T04:38:13;100359.81;;;23.53;100.00
8575;BME280;4325;42.520;27.448;2023-08-31T04:40:39;100361.94;;;23.59;100.00
8575;BME280;4325;42.520;27.448;2023-08-31T04:43:06;100374.53;;;23.69;100.00
8575;BME280;4325;42.520;27.448;2023-08-31T04:45:33;100374.44;;;23.65;100.00
8575;BME280;4325;42.520;27.448;2023-08-31T04:48:00;100366.06;;;23.65;100.00
8575;BME280;4325;42.520;27.448;2023-08-31T04:50:30;100377.84;;;23.75;100.00
8575;BME280;4325;42.520;27.448;2023-08-31T04:52:56;100374.06;;;23.86;100.00
8575;BME280;4325;42.520;27.448;2023-08-31T04:55:23;100370.97;;;23.91;100.00
8575;BME280;4325;42.520;27.448;2023-08-31T04:57:50;100360.00;;;24.02;100.00
8575;BME280;4325;42.520;27.448;2023-08-31T05:00:18;100362.59;;;24.10;100.00
8575;BME280;4325;42.520;27.448;2023-08-31T05:02:45;100367.19;;;24.22;100.00
8575;BME280;4325;42.520;27.448;2023-08-31T05:05:12;100380.22;;;24.34;100.00
8575;BME280;4325;42.520;27.448;2023-08-31T05:07:41;100376.72;;;24.40;100.00
8575;BME280;4325;42.520;27.448;2023-08-31T05:10:09;100388.91;;;24.51;100.00
8575;BME280;4325;42.520;27.448;2023-08-31T05:12:37;100381.81;;;24.57;100.00
8575;BME280;4325;42.520;27.448;2023-08-31T05:15:04;100373.97;;;24.66;100.00
8575;BME280;4325;42.520;27.448;2023-08-31T05:17:31;100368.44;;;24.70;100.00
8575;BME280;4325;42.520;27.448;2023-08-31T05:19:59;100381.44;;;24.81;100.00
8575;BME280;4325;42.520;27.448;2023-08-31T05:22:26;100373.53;;;24.87;100.00
8575;BME280;4325;42.520;27.448;2023-08-31T05:24:55;100389.75;;;25.01;100.00
8575;BME280;4325;42.520;27.448;2023-08-31T05:27:21;100380.69;;;25.11;100.00
8575;BME280;4325;42.520;27.448;2023-08-31T05:29:48;100382.50;;;25.00;100.00
8575;BME280;4325;42.520;27.448;2023-08-31T05:32:16;100377.91;;;25.11;100.00
8575;BME280;4325;42.520;27.448;2023-08-31T05:34:42;100378.00;;;25.18;100.00
8575;BME280;4325;42.520;27.448;2023-08-31T05:37:09;100375.75;;;25.01;100.00
8575;BME280;4325;42.520;27.448;2023-08-31T05:39:37;100387.91;;;25.12;100.00
8575;BME280;4325;42.520;27.448;2023-08-31T05:42:06;100394.19;;;25.31;100.00
8575;BME280;4325;42.520;27.448;2023-08-31T05:44:32;100398.47;;;25.48;100.00
8575;BME280;4325;42.520;27.448;2023-08-31T05:46:59;100397.91;;;25.65;100.00
8575;BME280;4325;42.520;27.448;2023-08-31T05:49:26;100405.13;;;25.66;100.00
8575;BME280;4325;42.520;27.448;2023-08-31T05:51:53;100403.59;;;25.72;100.00
8575;BME280;4325;42.520;27.448;2023-08-31T05:54:20;100408.50;;;25.82;100.00
8575;BME280;4325;42.520;27.448;2023-08-31T05:56:47;100406.53;;;25.83;100.00
8575;BME280;4325;42.520;27.448;2023-08-31T05:59:15;100413.88;;;25.94;100.00
8575;BME280;4325;42.520;27.448;2023-08-31T06:01:43;100413.63;;;26.06;100.00
8575;BME280;4325;42.520;27.448;2023-08-31T06:04:10;100417.03;;;26.23;100.00
8575;BME280;4325;42.520;27.448;2023-08-31T06:06:37;100422.81;;;26.37;100.00
8575;BME280;4325;42.520;27.448;2023-08-31T06:09:04;100425.72;;;26.47;100.00
8575;BME280;4325;42.520;27.448;2023-08-31T06:11:32;100427.47;;;26.62;100.00
8575;BME280;4325;42.520;27.448;2023-08-31T06:14:00;100419.78;;;26.56;100.00
8575;BME280;4325;42.520;27.448;2023-08-31T06:16:28;100419.72;;;26.49;100.00
8575;BME280;4325;42.520;27.448;2023-08-31T06:18:55;100426.63;;;26.58;100.00
8575;BME280;4325;42.520;27.448;2023-08-31T06:21:22;100429.22;;;26.77;100.00
8575;BME280;4325;42.520;27.448;2023-08-31T06:23:49;100441.75;;;26.87;100.00
8575;BME280;4325;42.520;27.448;2023-08-31T06:26:16;100441.78;;;26.91;100.00
8575;BME280;4325;42.520;27.448;2023-08-31T06:28:43;100436.13;;;26.83;100.00
8575;BME280;4325;42.520;27.448;2023-08-31T06:31:10;100456.16;;;26.82;100.00
8575;BME280;4325;42.520;27.448;2023-08-31T06:33:38;100441.13;;;27.08;100.00
8575;BME280;4325;42.520;27.448;2023-08-31T06:36:06;100463.25;;;27.16;100.00
8575;BME280;4325;42.520;27.448;2023-08-31T06:38:33;100448.75;;;27.07;100.00
8575;BME280;4325;42.520;27.448;2023-08-31T06:41:01;100453.19;;;27.12;100.00
8575;BME280;4325;42.520;27.448;2023-08-31T06:43:28;100454.47;;;27.21;100.00
8575;BME280;4325;42.520;27.448;2023-08-31T06:45:55;100465.31;;;27.19;100.00
8575;BME280;4325;42.520;27.448;2023-08-31T06:48:22;100467.97;;;27.49;100.00
8575;BME280;4325;42.520;27.448;2023-08-31T06:50:50;100464.88;;;27.75;100.00
8575;BME280;4325;42.520;27.448;2023-08-31T06:53:17;100469.00;;;27.99;100.00
8575;BME280;4325;42.520;27.448;2023-08-31T06:55:44;100468.72;;;28.14;100.00
8575;BME280;4325;42.520;27.448;2023-08-31T06:58:11;100465.94;;;28.25;100.00
8575;BME280;4325;42.520;27.448;2023-08-31T07:00:38;100472.44;;;28.40;100.00
8575;BME280;4325;42.520;27.448;2023-08-31T07:03:05;100466.03;;;28.57;100.00
8575;BME280;4325;42.520;27.448;2023-08-31T07:05:33;100473.72;;;28.70;96.93
8575;BME280;4325;42.520;27.448;2023-08-31T07:08:03;100470.06;;;28.63;98.23
8575;BME280;4325;42.520;27.448;2023-08-31T07:10:30;100469.22;;;28.48;98.18
8575;BME280;4325;42.520;27.448;2023-08-31T07:12:57;100479.69;;;28.58;97.13
8575;BME280;4325;42.520;27.448;2023-08-31T07:15:24;100474.53;;;28.64;93.26
8575;BME280;4325;42.520;27.448;2023-08-31T07:17:51;100473.28;;;28.65;92.24
8575;BME280;4325;42.520;27.448;2023-08-31T07:20:18;100477.31;;;28.67;91.67
8575;BME280;4325;42.520;27.448;2023-08-31T07:22:45;100473.31;;;29.04;91.67
8575;BME280;4325;42.520;27.448;2023-08-31T07:25:14;100484.63;;;29.32;86.18
8575;BME280;4325;42.520;27.448;2023-08-31T07:27:41;100475.72;;;29.48;85.36
8575;BME280;4325;42.520;27.448;2023-08-31T07:30:08;100471.63;;;29.84;79.36
8575;BME280;4325;42.520;27.448;2023-08-31T07:32:36;100476.34;;;30.19;76.72
8575;BME280;4325;42.520;27.448;2023-08-31T07:35:03;100473.44;;;30.40;73.90
8575;BME280;4325;42.520;27.448;2023-08-31T07:37:32;100479.75;;;30.65;69.76
8575;BME280;4325;42.520;27.448;2023-08-31T07:39:59;100468.75;;;30.74;71.12
8575;BME280;4325;42.520;27.448;2023-08-31T07:42:27;100482.91;;;30.74;73.32
8575;BME280;4325;42.520;27.448;2023-08-31T07:44:54;100475.53;;;30.94;71.88
8575;BME280;4325;42.520;27.448;2023-08-31T07:47:21;100466.84;;;31.60;65.67
8575;BME280;4325;42.520;27.448;2023-08-31T07:49:48;100473.94;;;32.73;60.17
8575;BME280;4325;42.520;27.448;2023-08-31T07:52:15;100467.75;;;33.94;53.35
8575;BME280;4325;42.520;27.448;2023-08-31T07:54:42;100480.97;;;34.59;50.20
8575;BME280;4325;42.520;27.448;2023-08-31T07:57:09;100472.81;;;34.61;49.82
8575;BME280;4325;42.520;27.448;2023-08-31T07:59:37;100463.97;;;35.24;47.91
8575;BME280;4325;42.520;27.448;2023-08-31T08:02:05;100468.47;;;37.02;41.01
8575;BME280;4325;42.520;27.448;2023-08-31T08:04:32;100459.94;;;37.84;39.84
8575;BME280;4325;42.520;27.448;2023-08-31T08:06:59;100461.50;;;37.85;38.88
8575;BME280;4325;42.520;27.448;2023-08-31T08:09:26;100456.53;;;37.29;39.74
8575;BME280;4325;42.520;27.448;2023-08-31T08:11:55;100456.94;;;36.68;40.94
8575;BME280;4325;42.520;27.448;2023-08-31T08:14:25;100462.50;;;39.14;36.34
8575;BME280;4325;42.520;27.448;2023-08-31T08:16:56;100468.53;;;41.26;31.14
8575;BME280;4325;42.520;27.448;2023-08-31T08:19:23;100472.56;;;43.48;28.74
8575;BME280;4325;42.520;27.448;2023-08-31T08:21:50;100462.97;;;44.85;25.83
8575;BME280;4325;42.520;27.448;2023-08-31T08:24:17;100469.34;;;46.96;23.73
8575;BME280;4325;42.520;27.448;2023-08-31T08:26:47;100456.69;;;48.55;22.84
8575;BME280;4325;42.520;27.448;2023-08-31T08:29:14;100455.44;;;49.47;21.13
8575;BME280;4325;42.520;27.448;2023-08-31T08:31:41;100454.81;;;47.18;22.82
8575;BME280;4325;42.520;27.448;2023-08-31T08:34:10;100445.16;;;46.43;22.72
8575;BME280;4325;42.520;27.448;2023-08-31T08:36:40;100437.75;;;46.65;23.50
8575;BME280;4325;42.520;27.448;2023-08-31T08:39:09;100452.13;;;47.94;22.23
8575;BME280;4325;42.520;27.448;2023-08-31T08:41:37;100448.13;;;48.68;20.80
8575;BME280;4325;42.520;27.448;2023-08-31T08:44:05;100458.13;;;49.45;20.61
8575;BME280;4325;42.520;27.448;2023-08-31T08:47:02;100454.03;;;50.28;19.17
8575;BME280;4325;42.520;27.448;2023-08-31T08:49:58;100447.03;;;51.21;18.80
8575;BME280;4325;42.520;27.448;2023-08-31T08:52:25;100442.22;;;51.96;18.90
8575;BME280;4325;42.520;27.448;2023-08-31T08:54:52;100431.31;;;51.37;18.03
8575;BME280;4325;42.520;27.448;2023-08-31T08:57:20;100434.16;;;52.10;18.02
8575;BME280;4325;42.520;27.448;2023-08-31T08:59:47;100438.63;;;52.24;17.14
8575;BME280;4325;42.520;27.448;2023-08-31T09:02:14;100433.31;;;52.02;16.94
8575;BME280;4325;42.520;27.448;2023-08-31T09:04:41;100431.47;;;50.60;17.36
8575;BME280;4325;42.520;27.448;2023-08-31T09:07:09;100433.00;;;50.93;17.09
8575;BME280;4325;42.520;27.448;2023-08-31T09:09:48;100422.34;;;50.38;17.58
8575;BME280;4325;42.520;27.448;2023-08-31T09:12:16;100435.25;;;49.73;17.74
8575;BME280;4325;42.520;27.448;2023-08-31T09:14:43;100425.94;;;50.44;17.26
8575;BME280;4325;42.520;27.448;2023-08-31T09:17:10;100427.81;;;50.60;17.02
8575;BME280;4325;42.520;27.448;2023-08-31T09:19:37;100433.94;;;50.56;18.27
8575;BME280;4325;42.520;27.448;2023-08-31T09:22:04;100431.84;;;51.48;17.71
8575;BME280;4325;42.520;27.448;2023-08-31T09:24:41;100427.28;;;50.43;16.70
8575;BME280;4325;42.520;27.448;2023-08-31T09:27:10;100418.22;;;48.97;17.70
8575;BME280;4325;42.520;27.448;2023-08-31T09:29:38;100421.28;;;47.34;18.87
8575;BME280;4325;42.520;27.448;2023-08-31T09:32:05;100419.84;;;46.83;20.11
8575;BME280;4325;42.520;27.448;2023-08-31T09:34:33;100420.41;;;46.42;19.95
8575;BME280;4325;42.520;27.448;2023-08-31T09:37:04;100419.59;;;46.42;19.47
8575;BME280;4325;42.520;27.448;2023-08-31T09:39:35;100420.13;;;46.02;19.01
8575;BME280;4325;42.520;27.448;2023-08-31T09:42:04;100418.03;;;46.24;19.19
8575;BME280;4325;42.520;27.448;2023-08-31T09:44:40;100414.34;;;46.29;20.18
8575;BME280;4325;42.520;27.448;2023-08-31T09:47:07;100413.97;;;47.16;18.19
8575;BME280;4325;42.520;27.448;2023-08-31T09:49:36;100412.44;;;49.77;16.87
8575;BME280;4325;42.520;27.448;2023-08-31T09:52:04;100425.75;;;51.26;15.70
8575;BME280;4325;42.520;27.448;2023-08-31T09:54:35;100421.66;;;52.92;14.81
8575;BME280;4325;42.520;27.448;2023-08-31T09:57:03;100434.56;;;54.65;13.67
8575;BME280;4325;42.520;27.448;2023-08-31T09:59:31;100421.41;;;53.98;13.49
8575;BME280;4325;42.520;27.448;2023-08-31T10:01:59;100423.81;;;54.90;13.55
8575;BME280;4325;42.520;27.448;2023-08-31T10:04:29;100421.28;;;54.71;13.66
8575;BME280;4325;42.520;27.448;2023-08-31T10:06:58;100428.72;;;53.68;14.85
8575;BME280;4325;42.520;27.448;2023-08-31T10:09:25;100416.16;;;51.98;15.57
8575;BME280;4325;42.520;27.448;2023-08-31T10:11:53;100417.78;;;49.12;16.36
8575;BME280;4325;42.520;27.448;2023-08-31T10:14:22;100416.03;;;49.46;17.17
8575;BME280;4325;42.520;27.448;2023-08-31T10:16:49;100402.22;;;50.21;16.63
8575;BME280;4325;42.520;27.448;2023-08-31T10:19:18;100414.00;;;52.20;15.61
8575;BME280;4325;42.520;27.448;2023-08-31T10:21:45;100425.56;;;54.17;14.24
8575;BME280;4325;42.520;27.448;2023-08-31T10:24:12;100418.09;;;56.26;12.59
8575;BME280;4325;42.520;27.448;2023-08-31T10:26:38;100419.50;;;57.09;11.94
8575;BME280;4325;42.520;27.448;2023-08-31T10:29:05;100420.63;;;57.92;11.53
8575;BME280;4325;42.520;27.448;2023-08-31T10:31:34;100423.38;;;55.71;12.16
8575;BME280;4325;42.520;27.448;2023-08-31T10:34:02;100413.03;;;54.92;13.45
8575;BME280;4325;42.520;27.448;2023-08-31T10:36:38;100413.19;;;53.09;13.64
8575;BME280;4325;42.520;27.448;2023-08-31T10:39:11;100408.97;;;49.97;15.51
8575;BME280;4325;42.520;27.448;2023-08-31T10:41:38;100412.88;;;48.53;15.91
8575;BME280;4325;42.520;27.448;2023-08-31T10:44:19;100421.25;;;50.22;15.59
8575;BME280;4325;42.520;27.448;2023-08-31T10:46:48;100415.34;;;51.64;15.47
8575;BME280;4325;42.520;27.448;2023-08-31T10:49:16;100415.81;;;53.20;15.09
8575;BME280;4325;42.520;27.448;2023-08-31T10:51:44;100419.38;;;53.34;14.14
8575;BME280;4325;42.520;27.448;2023-08-31T10:54:13;100413.56;;;51.48;15.57
8575;BME280;4325;42.520;27.448;2023-08-31T10:57:01;100412.03;;;49.86;17.75
8575;BME280;4325;42.520;27.448;2023-08-31T10:59:45;100417.69;;;49.17;17.16
8575;BME280;4325;42.520;27.448;2023-08-31T11:05:11;100413.47;;;49.18;18.29
8575;BME280;4325;42.520;27.448;2023-08-31T11:07:41;100410.69;;;48.83;18.20
8575;BME280;4325;42.520;27.448;2023-08-31T11:10:13;100406.00;;;47.85;19.52
8575;BME280;4325;42.520;27.448;2023-08-31T11:12:41;100403.31;;;47.35;20.13
8575;BME280;4325;42.520;27.448;2023-08-31T11:15:10;100388.91;;;48.41;19.73
8575;BME280;4325;42.520;27.448;2023-08-31T11:17:37;100391.81;;;49.94;18.05
8575;BME280;4325;42.520;27.448;2023-08-31T11:20:06;100393.50;;;51.31;15.91
8575;BME280;4325;42.520;27.448;2023-08-31T11:22:38;100391.03;;;51.22;16.89
8575;BME280;4325;42.520;27.448;2023-08-31T11:25:07;100391.03;;;50.70;18.27
8575;BME280;4325;42.520;27.448;2023-08-31T11:27:34;100379.22;;;50.17;19.29
8575;BME280;4325;42.520;27.448;2023-08-31T11:30:03;100379.34;;;51.22;18.38
8575;BME280;4325;42.520;27.448;2023-08-31T11:32:30;100379.38;;;49.93;19.58
8575;BME280;4325;42.520;27.448;2023-08-31T11:34:57;100383.19;;;49.70;19.00
8575;BME280;4325;42.520;27.448;2023-08-31T11:37:24;100380.28;;;51.04;19.18
8575;BME280;4325;42.520;27.448;2023-08-31T11:39:53;100378.53;;;52.36;20.38
8575;BME280;4325;42.520;27.448;2023-08-31T11:42:21;100362.41;;;51.34;21.03
8575;BME280;4325;42.520;27.448;2023-08-31T11:44:50;100375.13;;;50.97;20.99
8575;BME280;4325;42.520;27.448;2023-08-31T11:47:20;100380.47;;;51.45;20.06
8575;BME280;4325;42.520;27.448;2023-08-31T11:49:47;100381.63;;;50.77;21.71
8575;BME280;4325;42.520;27.448;2023-08-31T11:52:15;100386.31;;;51.79;19.80
8575;BME280;4325;42.520;27.448;2023-08-31T11:54:43;100401.75;;;50.17;21.96
8575;BME280;4325;42.520;27.448;2023-08-31T11:57:12;100390.22;;;47.23;25.90
8575;BME280;4325;42.520;27.448;2023-08-31T11:59:40;100392.94;;;44.33;29.58
8575;BME280;4325;42.520;27.448;2023-08-31T12:02:08;100383.41;;;42.69;31.17
8575;BME280;4325;42.520;27.448;2023-08-31T12:04:42;100381.91;;;41.81;33.35
8575;BME280;4325;42.520;27.448;2023-08-31T12:07:09;100384.28;;;40.73;35.42
8575;BME280;4325;42.520;27.448;2023-08-31T12:09:36;100387.97;;;39.72;37.45
8575;BME280;4325;42.520;27.448;2023-08-31T12:12:04;100392.16;;;38.85;40.23
8575;BME280;4325;42.520;27.448;2023-08-31T12:14:32;100393.66;;;37.98;45.57
8575;BME280;4325;42.520;27.448;2023-08-31T12:17:01;100382.03;;;37.02;50.50
8575;BME280;4325;42.520;27.448;2023-08-31T12:19:29;100388.47;;;36.30;54.38
8575;BME280;4325;42.520;27.448;2023-08-31T12:21:56;100390.09;;;35.90;57.48
8575;BME280;4325;42.520;27.448;2023-08-31T12:24:23;100396.03;;;35.54;62.50
8575;BME280;4325;42.520;27.448;2023-08-31T12:26:50;100387.13;;;35.24;65.69
8575;BME280;4325;42.520;27.448;2023-08-31T12:29:19;100390.66;;;34.95;66.22
8575;BME280;4325;42.520;27.448;2023-08-31T12:31:47;100395.16;;;34.80;72.48
8575;BME280;4325;42.520;27.448;2023-08-31T12:34:15;100389.78;;;34.50;74.92
8575;BME280;4325;42.520;27.448;2023-08-31T12:36:42;100390.53;;;33.99;80.02
8575;BME280;4325;42.520;27.448;2023-08-31T12:39:09;100390.34;;;33.70;81.34
8575;BME280;4325;42.520;27.448;2023-08-31T12:41:37;100400.69;;;33.37;83.08
8575;BME280;4325;42.520;27.448;2023-08-31T12:44:04;100411.44;;;32.80;91.04
8575;BME280;4325;42.520;27.448;2023-08-31T12:46:32;100408.97;;;32.58;93.41
8575;BME280;4325;42.520;27.448;2023-08-31T12:49:01;100401.38;;;32.75;92.42
8575;BME280;4325;42.520;27.448;2023-08-31T12:51:29;100400.22;;;34.01;85.31
8575;BME280;4325;42.520;27.448;2023-08-31T12:53:56;100404.56;;;35.83;69.00
8575;BME280;4325;42.520;27.448;2023-08-31T12:56:23;100403.50;;;36.43;64.22
8575;BME280;4325;42.520;27.448;2023-08-31T12:58:50;100394.19;;;36.56;62.46
8575;BME280;4325;42.520;27.448;2023-08-31T13:01:18;100392.91;;;36.82;61.22
8575;BME280;4325;42.520;27.448;2023-08-31T13:03:45;100388.25;;;37.56;56.68